createdAt,value
2022-10-05T00:02:23.292Z,99878.40
2022-10-05T00:04:54.990Z,99877.60
2022-10-05T00:07:22.372Z,99877.80
2022-10-05T00:09:56.245Z,99880.20
2022-10-05T00:12:22.820Z,99875.40
2022-10-05T00:14:52.863Z,99876.00
2022-10-05T00:17:21.419Z,99875.20
2022-10-05T00:19:51.529Z,99883.40
2022-10-05T00:22:18.757Z,99874.60
2022-10-05T00:24:46.074Z,99879.80
2022-10-05T00:27:21.414Z,99874.20
2022-10-05T00:29:49.205Z,99868.00
2022-10-05T00:32:15.600Z,99865.60
2022-10-05T00:34:42.115Z,99866.40
2022-10-05T00:37:08.768Z,99858.60
2022-10-05T00:39:36.714Z,99853.00
2022-10-05T00:42:37.468Z,99855.00
2022-10-05T00:45:17.511Z,99855.00
2022-10-05T00:48:15.164Z,99851.20
2022-10-05T00:50:51.756Z,99852.40
2022-10-05T00:53:42.735Z,99847.20
2022-10-05T00:56:44.893Z,99855.80
2022-10-05T00:59:40.274Z,99853.00
2022-10-05T01:02:22.645Z,99850.00
2022-10-05T01:05:10.234Z,99843.40
2022-10-05T01:07:50.670Z,99841.80
2022-10-05T01:10:26.819Z,99841.20
2022-10-05T01:13:07.925Z,99839.00
2022-10-05T01:16:14.747Z,99847.20
2022-10-05T01:19:27.267Z,99845.80
2022-10-05T01:22:03.993Z,99839.40
2022-10-05T01:24:43.963Z,99833.20
2022-10-05T01:27:35.638Z,99828.00
2022-10-05T01:30:12.938Z,99837.40
2022-10-05T01:33:04.541Z,99829.80
2022-10-05T01:35:39.983Z,99825.60
2022-10-05T01:38:40.397Z,99815.00
2022-10-05T01:41:23.580Z,99825.20
2022-10-05T01:44:02.842Z,99826.00
2022-10-05T01:46:49.677Z,99822.80
2022-10-05T01:49:54.629Z,99825.40
2022-10-05T01:52:47.974Z,99825.40
2022-10-05T01:55:53.586Z,99834.20
2022-10-05T01:58:48.323Z,99841.20
2022-10-05T02:01:40.648Z,99856.00
2022-10-05T02:04:11.415Z,99848.00
2022-10-05T02:06:41.714Z,99852.00
2022-10-05T02:09:24.599Z,99860.60
2022-10-05T02:12:00.078Z,99860.20
2022-10-05T02:14:32.539Z,99856.40
2022-10-05T02:16:59.499Z,99853.60
2022-10-05T02:19:58.308Z,99864.80
2022-10-05T02:23:02.855Z,99869.40
2022-10-05T02:25:38.091Z,99853.80
2022-10-05T02:28:21.327Z,99859.00
2022-10-05T02:30:54.730Z,99860.20
2022-10-05T02:33:29.639Z,99862.20
2022-10-05T02:36:17.733Z,99855.80
2022-10-05T02:39:05.758Z,99847.80
2022-10-05T02:41:46.931Z,99828.00
2022-10-05T02:44:35.436Z,99824.60
2022-10-05T02:47:32.931Z,99819.20
2022-10-05T02:50:07.854Z,99825.20
2022-10-05T02:52:52.936Z,99831.60
2022-10-05T02:55:30.348Z,99833.00
2022-10-05T02:58:08.980Z,99830.60
2022-10-05T03:00:49.717Z,99823.80
2022-10-05T03:03:30.835Z,99837.40
2022-10-05T03:06:01.478Z,99827.40
2022-10-05T03:08:35.260Z,99812.00
2022-10-05T03:11:31.506Z,99807.60
2022-10-05T03:13:58.904Z,99811.20
2022-10-05T03:16:54.367Z,99815.00
2022-10-05T03:20:13.320Z,99815.80
2022-10-05T03:23:00.745Z,99812.80
2022-10-05T03:26:03.198Z,99817.20
2022-10-05T03:28:37.689Z,99810.60
2022-10-05T03:31:32.668Z,99797.60
2022-10-05T03:34:29.419Z,99798.60
2022-10-05T03:37:14.516Z,99798.80
2022-10-05T03:39:46.423Z,99791.60
2022-10-05T03:42:30.584Z,99801.00
2022-10-05T03:45:27.131Z,99809.20
2022-10-05T03:48:09.492Z,99816.20
2022-10-05T03:51:08.276Z,99805.20
2022-10-05T03:53:46.824Z,99799.20
2022-10-05T03:56:29.988Z,99797.20
2022-10-05T03:59:18.342Z,99797.20
2022-10-05T04:02:00.842Z,99783.40
2022-10-05T04:04:37.222Z,99770.80
2022-10-05T04:07:03.618Z,99767.60
2022-10-05T04:09:36.443Z,99770.40
2022-10-05T04:12:22.667Z,99773.00
2022-10-05T04:14:54.333Z,99782.80
2022-10-05T04:17:35.376Z,99794.20
2022-10-05T04:20:06.466Z,99794.80
2022-10-05T04:22:58.958Z,99792.00
2022-10-05T04:25:35.207Z,99796.40
2022-10-05T04:28:45.667Z,99789.40
2022-10-05T04:31:19.050Z,99795.40
2022-10-05T04:33:49.429Z,99796.00
2022-10-05T04:36:22.099Z,99789.20
2022-10-05T04:39:16.906Z,99789.60
2022-10-05T04:42:10.199Z,99782.80
2022-10-05T04:44:57.089Z,99780.00
2022-10-05T04:47:51.110Z,99785.20
2022-10-05T04:50:48.422Z,99782.40
2022-10-05T04:53:27.086Z,99791.80
2022-10-05T04:56:38.942Z,99793.20
2022-10-05T04:59:16.898Z,99789.60
2022-10-05T05:02:10.727Z,99789.20
2022-10-05T05:05:21.585Z,99783.80
2022-10-05T05:07:58.969Z,99785.80
2022-10-05T05:11:06.945Z,99791.60
2022-10-05T05:13:57.315Z,99795.60
2022-10-05T05:16:36.003Z,99803.20
2022-10-05T05:19:15.932Z,99813.80
2022-10-05T05:22:03.808Z,99807.60
2022-10-05T05:25:04.606Z,99814.60
2022-10-05T05:27:45.193Z,99809.20
2022-10-05T05:30:34.717Z,99801.20
2022-10-05T05:33:29.784Z,99819.20
2022-10-05T05:36:09.538Z,99818.20
2022-10-05T05:38:57.775Z,99830.60
2022-10-05T05:41:38.600Z,99827.20
2022-10-05T05:44:29.788Z,99806.00
2022-10-05T05:47:18.960Z,99809.00
2022-10-05T05:50:07.986Z,99813.00
2022-10-05T05:52:45.287Z,99812.40
2022-10-05T05:55:39.976Z,99820.60
2022-10-05T05:58:15.086Z,99815.00
2022-10-05T06:00:46.766Z,99812.40
2022-10-05T06:03:29.828Z,99803.60
2022-10-05T06:06:00.154Z,99796.20
2022-10-05T06:08:53.338Z,99800.40
2022-10-05T06:11:39.417Z,99800.00
2022-10-05T06:14:13.154Z,99793.60
2022-10-05T06:16:45.880Z,99800.80
2022-10-05T06:19:16.977Z,99789.20
2022-10-05T06:21:51.814Z,99794.60
2022-10-05T06:24:24.842Z,99792.40
2022-10-05T06:27:06.551Z,99792.00
2022-10-05T06:30:05.183Z,99793.60
2022-10-05T06:32:40.444Z,99785.80
2022-10-05T06:35:46.861Z,99794.20
2022-10-05T06:38:37.903Z,99806.40
2022-10-05T06:41:19.265Z,99799.80
2022-10-05T06:44:00.129Z,99800.80
2022-10-05T06:47:31.042Z,99803.80
2022-10-05T06:50:37.831Z,99798.40
2022-10-05T06:53:47.791Z,99797.40
2022-10-05T06:56:26.684Z,99807.40
2022-10-05T06:59:01.136Z,99818.40
2022-10-05T07:01:59.315Z,99817.80
2022-10-05T07:05:20.648Z,99813.20
2022-10-05T07:07:53.352Z,99818.40
2022-10-05T07:10:57.173Z,99825.40
2022-10-05T07:14:04.464Z,99826.20
2022-10-05T07:16:40.203Z,99817.80
2022-10-05T07:19:51.815Z,99815.60
2022-10-05T07:22:37.141Z,99827.20
2022-10-05T07:25:20.415Z,99838.60
2022-10-05T07:28:09.130Z,99834.20
2022-10-05T07:31:04.723Z,99828.60
2022-10-05T07:33:52.615Z,99822.80
2022-10-05T07:37:07.446Z,99827.80
2022-10-05T07:40:01.457Z,99831.80
2022-10-05T07:42:55.888Z,99825.40
2022-10-05T07:45:32.570Z,99826.20
2022-10-05T07:48:11.701Z,99830.40
2022-10-05T07:50:54.863Z,99830.00
2022-10-05T07:53:37.223Z,99828.20
2022-10-05T07:56:42.725Z,99818.40
2022-10-05T07:59:17.167Z,99813.60
2022-10-05T08:01:47.409Z,99805.80
2022-10-05T08:04:19.142Z,99805.60
2022-10-05T08:06:56.695Z,99804.20
2022-10-05T08:09:42.543Z,99805.60
2022-10-05T08:12:47.580Z,99796.20
2022-10-05T08:15:22.976Z,99792.20
2022-10-05T08:18:01.468Z,99792.20
2022-10-05T08:20:47.987Z,99792.40
2022-10-05T08:23:37.940Z,99798.40
2022-10-05T08:26:53.581Z,99795.80
2022-10-05T08:29:26.080Z,99794.20
2022-10-05T08:32:02.098Z,99797.40
2022-10-05T08:35:09.686Z,99799.20
2022-10-05T08:37:39.503Z,99806.60
2022-10-05T08:40:18.053Z,99801.60
2022-10-05T08:43:35.278Z,99795.80
2022-10-05T08:46:21.025Z,99795.60
2022-10-05T08:49:09.865Z,99788.00
2022-10-05T08:51:53.491Z,99786.20
2022-10-05T08:54:34.672Z,99775.40
2022-10-05T08:57:28.893Z,99780.40
2022-10-05T09:00:12.342Z,99774.20
2022-10-05T09:03:15.419Z,99774.40
2022-10-05T09:06:13.856Z,99781.00
2022-10-05T09:09:20.309Z,99776.00
2022-10-05T09:12:28.043Z,99772.20
2022-10-05T09:15:51.558Z,99767.00
2022-10-05T09:18:49.239Z,99771.80
2022-10-05T09:21:41.963Z,99768.60
2022-10-05T09:24:14.418Z,99769.80
2022-10-05T09:27:01.469Z,99772.20
2022-10-05T09:29:55.535Z,99776.20
2022-10-05T09:32:46.224Z,99768.40
2022-10-05T09:35:51.739Z,99774.20
2022-10-05T09:39:01.221Z,99774.20
2022-10-05T09:41:47.384Z,99775.60
2022-10-05T09:44:32.175Z,99773.20
2022-10-05T09:47:17.019Z,99769.60
2022-10-05T09:49:46.264Z,99771.20
2022-10-05T09:52:37.415Z,99768.80
2022-10-05T09:55:19.494Z,99765.80
2022-10-05T09:58:17.285Z,99764.60
2022-10-05T10:01:09.445Z,99765.60
2022-10-05T10:04:07.332Z,99769.60
2022-10-05T10:06:57.249Z,99768.60
2022-10-05T10:09:39.810Z,99776.00
2022-10-05T10:12:21.122Z,99774.40
2022-10-05T10:15:15.250Z,99775.80
2022-10-05T10:18:41.079Z,99776.80
2022-10-05T10:21:52.133Z,99779.20
2022-10-05T10:24:57.217Z,99785.60
2022-10-05T10:27:58.996Z,99789.20
2022-10-05T10:30:59.461Z,99795.80
2022-10-05T10:34:16.049Z,99792.00
2022-10-05T10:36:58.065Z,99785.80
2022-10-05T10:39:52.260Z,99783.40
2022-10-05T10:42:28.204Z,99787.40
2022-10-05T10:45:12.491Z,99786.60
2022-10-05T10:47:59.749Z,99784.20
2022-10-05T10:51:06.439Z,99779.00
2022-10-05T10:53:52.567Z,99777.80
2022-10-05T10:57:14.754Z,99773.80
2022-10-05T11:00:19.586Z,99765.20
2022-10-05T11:03:13.977Z,99761.00
2022-10-05T11:06:07.141Z,99762.60
2022-10-05T11:08:57.728Z,99756.60
2022-10-05T11:12:17.188Z,99757.00
2022-10-05T11:14:52.436Z,99748.20
2022-10-05T11:17:28.699Z,99751.00
2022-10-05T11:20:17.017Z,99750.40
2022-10-05T11:22:57.628Z,99748.60
2022-10-05T11:25:57.398Z,99757.60
2022-10-05T11:28:50.308Z,99753.80
2022-10-05T11:31:37.118Z,99750.20
2022-10-05T11:34:24.111Z,99754.40
2022-10-05T11:37:22.759Z,99747.40
2022-10-05T11:40:20.272Z,99739.00
2022-10-05T11:43:14.636Z,99740.80
2022-10-05T11:45:49.833Z,99741.20
2022-10-05T11:48:46.741Z,99743.80
2022-10-05T11:51:38.085Z,99739.00
2022-10-05T11:54:19.267Z,99738.00
2022-10-05T11:56:58.568Z,99732.20
2022-10-05T11:59:39.191Z,99738.40
2022-10-05T12:02:53.978Z,99731.40
2022-10-05T12:05:37.852Z,99734.40
2022-10-05T12:08:31.720Z,99727.00
2022-10-05T12:11:24.617Z,99733.00
2022-10-05T12:14:37.559Z,99730.20
2022-10-05T12:17:29.072Z,99729.20
2022-10-05T12:20:03.043Z,99728.80
2022-10-05T12:22:36.858Z,99729.80
2022-10-05T12:25:56.889Z,99723.20
2022-10-05T12:28:32.529Z,99717.00
2022-10-05T12:31:43.867Z,99719.00
2022-10-05T12:34:28.550Z,99712.40
2022-10-05T12:37:30.848Z,99711.60
2022-10-05T12:40:34.609Z,99708.80
2022-10-05T12:43:34.883Z,99704.60
2022-10-05T12:47:00.533Z,99699.60
2022-10-05T12:50:08.569Z,99689.60
2022-10-05T12:52:59.868Z,99689.20
2022-10-05T12:55:53.519Z,99692.80
2022-10-05T12:58:46.096Z,99699.80
2022-10-05T13:01:43.604Z,99694.20
2022-10-05T13:04:16.794Z,99698.20
2022-10-05T13:07:26.624Z,99703.80
2022-10-05T13:10:31.031Z,99709.60
2022-10-05T13:13:34.910Z,99711.00
2022-10-05T13:16:17.446Z,99705.40
2022-10-05T13:19:03.605Z,99708.00
2022-10-05T13:22:09.148Z,99701.40
2022-10-05T13:24:56.122Z,99690.40
2022-10-05T13:27:36.233Z,99682.20
2022-10-05T13:30:05.972Z,99679.00
2022-10-05T13:32:38.943Z,99680.00
2022-10-05T13:35:27.761Z,99687.80
2022-10-05T13:38:13.303Z,99686.60
2022-10-05T13:41:11.127Z,99674.60
2022-10-05T13:43:46.139Z,99672.80
2022-10-05T13:46:25.433Z,99674.20
2022-10-05T13:49:21.469Z,99669.00
2022-10-05T13:52:15.967Z,99669.80
2022-10-05T13:54:50.634Z,99673.00
2022-10-05T13:57:29.270Z,99672.00
2022-10-05T14:00:26.562Z,99664.80
2022-10-05T14:02:55.920Z,99665.60
2022-10-05T14:05:24.714Z,99665.00
2022-10-05T14:08:03.582Z,99668.00
2022-10-05T14:10:45.969Z,99659.60
2022-10-05T14:13:22.976Z,99663.80
2022-10-05T14:16:19.550Z,99664.80
2022-10-05T14:18:54.776Z,99661.20
2022-10-05T14:21:26.592Z,99654.60
2022-10-05T14:23:53.359Z,99658.40
2022-10-05T14:26:39.957Z,99653.20
2022-10-05T14:29:18.502Z,99647.60
2022-10-05T14:32:23.863Z,99654.40
2022-10-05T14:35:06.760Z,99653.20
2022-10-05T14:37:57.881Z,99653.60
2022-10-05T14:40:35.697Z,99655.20
2022-10-05T14:43:18.594Z,99655.80
2022-10-05T14:46:00.131Z,99654.00
2022-10-05T14:48:27.417Z,99658.40
2022-10-05T14:51:02.623Z,99656.40
2022-10-05T14:53:44.186Z,99651.60
2022-10-05T14:56:23.425Z,99652.60
2022-10-05T14:59:31.103Z,99656.80
2022-10-05T15:02:37.902Z,99659.00
2022-10-05T15:05:14.702Z,99654.80
2022-10-05T15:07:43.380Z,99660.40
2022-10-05T15:11:07.059Z,99661.00
2022-10-05T15:13:39.560Z,99648.60
2022-10-05T15:16:26.004Z,99642.60
2022-10-05T15:19:07.645Z,99636.20
2022-10-05T15:22:00.411Z,99633.40
2022-10-05T15:24:33.500Z,99637.00
2022-10-05T15:27:01.732Z,99629.80
2022-10-05T15:29:35.483Z,99633.40
2022-10-05T15:32:17.238Z,99631.00
2022-10-05T15:35:03.355Z,99623.80
2022-10-05T15:37:41.953Z,99626.40
2022-10-05T15:40:23.459Z,99627.00
2022-10-05T15:42:53.041Z,99623.40
2022-10-05T15:45:34.926Z,99633.40
2022-10-05T15:48:16.869Z,99629.60
2022-10-05T15:51:16.840Z,99626.20
2022-10-05T15:54:23.219Z,99616.20
2022-10-05T15:57:08.747Z,99616.40
2022-10-05T15:59:44.615Z,99613.20
2022-10-05T16:02:19.302Z,99611.80
2022-10-05T16:05:04.894Z,99613.40
2022-10-05T16:08:01.135Z,99619.40
2022-10-05T16:10:27.579Z,99611.80
2022-10-05T16:13:07.007Z,99613.40
2022-10-05T16:15:42.089Z,99604.40
2022-10-05T16:18:40.538Z,99605.20
2022-10-05T16:21:30.185Z,99598.00
2022-10-05T16:24:46.684Z,99599.80
2022-10-05T16:27:26.465Z,99594.80
2022-10-05T16:30:03.862Z,99597.40
2022-10-05T16:32:55.529Z,99598.60
2022-10-05T16:35:49.615Z,99596.40
2022-10-05T16:38:29.028Z,99595.60
2022-10-05T16:41:32.333Z,99599.40
2022-10-05T16:44:20.361Z,99602.00
2022-10-05T16:47:03.996Z,99604.00
2022-10-05T16:49:58.371Z,99606.40
2022-10-05T16:52:25.800Z,99609.40
2022-10-05T16:54:58.019Z,99611.40
2022-10-05T16:57:30.897Z,99620.20
2022-10-05T17:00:03.718Z,99611.20
2022-10-05T17:03:03.885Z,99609.20
2022-10-05T17:06:11.628Z,99604.80
2022-10-05T17:09:13.802Z,99598.80
2022-10-05T17:12:26.100Z,99599.40
2022-10-05T17:15:17.521Z,99605.20
2022-10-05T17:18:17.923Z,99607.20
2022-10-05T17:21:08.568Z,99599.00
2022-10-05T17:23:55.711Z,99599.80
2022-10-05T17:26:21.998Z,99601.80
2022-10-05T17:29:00.013Z,99598.20
2022-10-05T17:31:27.970Z,99596.80
2022-10-05T17:33:59.335Z,99588.80
2022-10-05T17:36:49.804Z,99586.40
2022-10-05T17:39:18.405Z,99588.00
2022-10-05T17:41:44.873Z,99588.40
2022-10-05T17:44:20.355Z,99591.20
2022-10-05T17:46:57.543Z,99585.80
2022-10-05T17:50:17.220Z,99583.40
2022-10-05T17:53:02.834Z,99588.00
2022-10-05T17:55:32.566Z,99587.00
2022-10-05T17:58:22.554Z,99587.60
2022-10-05T18:00:59.214Z,99585.80
2022-10-05T18:03:41.970Z,99583.60
2022-10-05T18:06:31.328Z,99584.00
2022-10-05T18:09:22.215Z,99582.40
2022-10-05T18:12:17.745Z,99584.20
2022-10-05T18:15:07.072Z,99582.40
2022-10-05T18:17:45.775Z,99583.40
2022-10-05T18:20:25.847Z,99587.60
2022-10-05T18:23:02.368Z,99586.00
2022-10-05T18:25:37.568Z,99587.20
2022-10-05T18:28:23.215Z,99590.00
2022-10-05T18:31:16.259Z,99588.20
2022-10-05T18:34:02.021Z,99584.40
2022-10-05T18:36:47.605Z,99585.00
2022-10-05T18:39:53.340Z,99584.00
2022-10-05T18:42:41.005Z,99583.80
2022-10-05T18:45:31.954Z,99589.20
2022-10-05T18:48:11.845Z,99584.80
2022-10-05T18:51:27.843Z,99581.60
2022-10-05T18:54:50.835Z,99573.00
2022-10-05T18:57:44.697Z,99572.80
2022-10-05T19:00:21.972Z,99572.00
2022-10-05T19:03:10.420Z,99571.60
2022-10-05T19:05:59.062Z,99570.60
2022-10-05T19:08:53.934Z,99572.60
2022-10-05T19:12:02.610Z,99575.00
2022-10-05T19:15:12.833Z,99580.40
2022-10-05T19:18:23.595Z,99577.00
2022-10-05T19:21:01.543Z,99580.00
2022-10-05T19:23:52.481Z,99573.00
2022-10-05T19:26:46.315Z,99576.20
2022-10-05T19:29:26.482Z,99577.40
2022-10-05T19:31:57.772Z,99574.80
2022-10-05T19:34:55.137Z,99569.40
2022-10-05T19:37:49.412Z,99569.60
2022-10-05T19:40:34.297Z,99570.80
2022-10-05T19:43:33.272Z,99566.40
2022-10-05T19:46:46.345Z,99569.40
2022-10-05T19:49:12.806Z,99568.00
2022-10-05T19:51:49.674Z,99569.80
2022-10-05T19:54:25.224Z,99569.40
2022-10-05T19:56:53.405Z,99570.00
2022-10-05T19:59:23.953Z,99569.80
2022-10-05T20:01:53.073Z,99573.60
2022-10-05T20:04:40.176Z,99577.60
2022-10-05T20:07:13.381Z,99578.80
2022-10-05T20:09:49.733Z,99578.00
2022-10-05T20:12:16.178Z,99576.40
2022-10-05T20:15:01.297Z,99577.60
2022-10-05T20:17:46.741Z,99577.00
2022-10-05T20:20:35.052Z,99584.40
2022-10-05T20:23:29.763Z,99590.40
2022-10-05T20:26:16.327Z,99588.20
2022-10-05T20:28:43.768Z,99589.60
2022-10-05T20:31:10.220Z,99587.80
2022-10-05T20:33:38.364Z,99591.00
2022-10-05T20:36:05.113Z,99592.80
2022-10-05T20:38:33.708Z,99595.60
2022-10-05T20:41:02.673Z,99597.40
2022-10-05T20:43:29.123Z,99597.80
2022-10-05T20:45:55.510Z,99596.60
2022-10-05T20:48:21.853Z,99600.40
2022-10-05T20:50:48.227Z,99600.00
2022-10-05T20:53:14.657Z,99600.20
2022-10-05T20:55:42.456Z,99595.60
2022-10-05T20:58:10.418Z,99596.00
2022-10-05T21:00:55.451Z,99596.80
2022-10-05T21:03:22.218Z,99601.20
2022-10-05T21:05:48.569Z,99600.20
2022-10-05T21:08:15.257Z,99603.20
2022-10-05T21:10:41.602Z,99602.20
2022-10-05T21:13:08.498Z,99601.00
2022-10-05T21:15:34.866Z,99603.40
2022-10-05T21:18:01.397Z,99609.00
2022-10-05T21:20:27.831Z,99605.20
2022-10-05T21:22:54.204Z,99605.00
2022-10-05T21:25:20.516Z,99609.20
2022-10-05T21:27:48.034Z,99609.20
2022-10-05T21:30:14.855Z,99613.80
2022-10-05T21:32:44.346Z,99614.60
2022-10-05T21:35:11.315Z,99610.80
2022-10-05T21:37:37.686Z,99614.60
2022-10-05T21:40:04.662Z,99618.80
2022-10-05T21:42:30.998Z,99615.00
2022-10-05T21:44:57.388Z,99616.00
2022-10-05T21:47:24.065Z,99620.20
2022-10-05T21:49:50.420Z,99614.80
2022-10-05T21:52:17.039Z,99618.20
2022-10-05T21:54:43.403Z,99624.40
2022-10-05T21:57:09.994Z,99630.40
2022-10-05T21:59:36.345Z,99623.60
2022-10-05T22:02:03.763Z,99626.40
2022-10-05T22:04:30.183Z,99629.20
2022-10-05T22:06:56.622Z,99626.60
2022-10-05T22:09:23.033Z,99633.80
2022-10-05T22:11:49.429Z,99629.00
2022-10-05T22:14:16.147Z,99635.40
2022-10-05T22:16:43.158Z,99629.80
2022-10-05T22:19:14.150Z,99643.00
2022-10-05T22:21:41.147Z,99638.20
2022-10-05T22:24:08.566Z,99645.00
2022-10-05T22:26:35.292Z,99644.40
2022-10-05T22:29:02.130Z,99642.40
2022-10-05T22:31:28.607Z,99642.80
2022-10-05T22:33:55.088Z,99645.20
2022-10-05T22:36:21.422Z,99645.20
2022-10-05T22:38:47.846Z,99649.00
2022-10-05T22:41:14.670Z,99649.60
2022-10-05T22:43:41.053Z,99657.60
2022-10-05T22:46:12.284Z,99665.20
2022-10-05T22:48:39.453Z,99667.60
2022-10-05T22:51:07.174Z,99668.20
2022-10-05T22:53:34.028Z,99670.00
2022-10-05T22:56:11.464Z,99670.80
2022-10-05T22:58:38.118Z,99680.40
2022-10-05T23:01:07.247Z,99674.20
2022-10-05T23:03:33.842Z,99669.80
2022-10-05T23:06:03.752Z,99672.40
2022-10-05T23:08:31.691Z,99671.80
2022-10-05T23:11:06.311Z,99676.00
2022-10-05T23:13:32.902Z,99674.60
2022-10-05T23:16:10.968Z,99679.00
2022-10-05T23:18:37.406Z,99679.00
2022-10-05T23:21:06.759Z,99679.80
2022-10-05T23:23:36.309Z,99687.80
2022-10-05T23:26:03.574Z,99691.00
2022-10-05T23:28:30.254Z,99691.20
2022-10-05T23:31:04.071Z,99688.60
2022-10-05T23:33:30.577Z,99690.20
2022-10-05T23:36:13.458Z,99691.60
2022-10-05T23:38:39.804Z,99689.60
2022-10-05T23:41:06.910Z,99696.40
2022-10-05T23:43:33.747Z,99691.20
2022-10-05T23:46:00.302Z,99692.00
2022-10-05T23:48:27.321Z,99695.80
2022-10-05T23:50:55.054Z,99692.00
2022-10-05T23:53:21.606Z,99691.80
2022-10-05T23:55:53.922Z,99692.40
2022-10-05T23:58:21.004Z,99695.80
